Time;durP1;ratioP1;P1;durP2;ratioP2;P2;SDS_P1;SDS_P2;PMS_P1;PMS_P2;Temp;Humidity;BMP_temperature;BMP_pressure;BME280_temperature;BME280_humidity;BME280_pressure;Samples;Min_cycle;Max_cycle;Signal;HPM_P1;HPM_P2
2022/08/11 00:00:11;;;;;;;4.22;2.40;;;;;;;23.12;100.00;101205.19;5094311;28;20059;-74
2022/08/11 00:03:04;;;;;;;4.43;2.33;;;;;;;23.12;100.00;101207.03;5095188;28;20457;-73
2022/08/11 00:05:54;;;;;;;3.05;2.10;;;;;;;23.25;100.00;101208.91;5095267;28;20119;-74
2022/08/11 00:08:42;;;;;;;5.43;2.30;;;;;;;23.12;100.00;101207.88;5094873;28;20038;-74
2022/08/11 00:11:37;;;;;;;2.38;2.13;;;;;;;23.34;100.00;101208.31;5080423;28;20460;-75
2022/08/11 00:14:26;;;;;;;2.60;2.00;;;;;;;23.23;100.00;101201.94;5078665;28;20471;-74
2022/08/11 00:17:13;;;;;;;4.65;2.28;;;;;;;23.26;100.00;101201.72;5095067;28;20028;-74
2022/08/11 00:20:04;;;;;;;2.65;2.20;;;;;;;23.20;100.00;101194.94;5094741;28;20065;-74
2022/08/11 00:22:50;;;;;;;3.45;2.10;;;;;;;23.23;100.00;101204.59;5079309;28;20028;-74
2022/08/11 00:25:41;;;;;;;2.45;2.22;;;;;;;23.24;100.00;101209.81;5094655;28;20137;-75
2022/08/11 00:28:32;;;;;;;2.95;2.10;;;;;;;23.13;100.00;101206.94;5094942;28;20059;-75
2022/08/11 00:31:37;;;;;;;3.83;2.08;;;;;;;22.99;100.00;101212.25;5094713;28;20096;-75
2022/08/11 00:34:32;;;;;;;3.47;2.25;;;;;;;23.05;100.00;101208.34;5094861;28;20028;-75
2022/08/11 00:37:20;;;;;;;3.25;2.17;;;;;;;23.14;100.00;101206.00;5094566;28;20027;-75
2022/08/11 00:40:14;;;;;;;2.33;2.08;;;;;;;23.26;100.00;101215.09;5081029;28;20032;-75
2022/08/11 00:43:07;;;;;;;3.10;2.33;;;;;;;23.25;100.00;101206.22;5094798;28;20055;-75
2022/08/11 00:46:21;;;;;;;2.22;2.03;;;;;;;23.12;100.00;101197.19;5097543;28;20066;-75
2022/08/11 00:49:15;;;;;;;3.47;2.25;;;;;;;23.12;100.00;101207.03;5098432;28;20028;-74
2022/08/11 00:52:12;;;;;;;3.97;2.10;;;;;;;23.23;100.00;101205.44;5098776;28;20024;-75
2022/08/11 00:55:19;;;;;;;3.63;2.30;;;;;;;23.14;100.00;101200.63;5069653;28;20057;-75
2022/08/11 00:58:46;;;;;;;2.72;2.25;;;;;;;22.83;100.00;101200.78;5077862;28;20021;-75
2022/08/11 01:01:56;;;;;;;3.60;2.08;;;;;;;23.19;100.00;101190.50;5078721;28;20089;-75
2022/08/11 01:04:57;;;;;;;3.15;2.20;;;;;;;23.19;100.00;101197.69;5076997;28;20066;-74
2022/08/11 01:07:49;;;;;;;3.30;2.20;;;;;;;23.38;100.00;101194.78;5077963;28;20094;-75
2022/08/11 01:11:02;;;;;;;2.78;2.17;;;;;;;23.30;100.00;101201.44;5063907;28;20453;-74
2022/08/11 01:14:22;;;;;;;2.72;2.10;;;;;;;23.19;100.00;101197.69;5077756;28;20032;-73
2022/08/11 01:17:30;;;;;;;3.63;2.22;;;;;;;23.25;100.00;101190.19;5077389;28;20024;-76
2022/08/11 01:20:30;;;;;;;4.75;2.70;;;;;;;23.43;100.00;101189.00;5076475;28;20353;-74
2022/08/11 01:23:37;;;;;;;2.55;2.30;;;;;;;23.42;100.00;101179.28;5076462;28;20025;-76
2022/08/11 01:26:46;;;;;;;5.38;2.85;;;;;;;23.34;100.00;101183.38;5076380;28;20028;-74
2022/08/11 01:29:50;;;;;;;3.72;2.45;;;;;;;23.47;100.00;101170.09;5078142;28;20055;-75
2022/08/11 01:32:54;;;;;;;2.95;2.40;;;;;;;23.44;100.00;101166.66;5077472;28;20111;-75
2022/08/11 01:36:18;;;;;;;5.40;2.70;;;;;;;23.25;100.00;101167.91;5076666;28;20086;-74
2022/08/11 01:39:19;;;;;;;3.08;2.35;;;;;;;23.39;100.00;101167.94;5077555;28;20021;-75
2022/08/11 01:46:15;;;;;;;8.73;3.47;;;;;;;23.30;100.00;101163.13;5077617;28;20036;-74
2022/08/11 01:49:01;;;;;;;4.38;2.60;;;;;;;23.31;100.00;101171.06;5017791;28;20091;-76
2022/08/11 01:52:08;;;;;;;3.80;2.30;;;;;;;23.10;100.00;101166.16;5077821;28;20024;-75
2022/08/11 01:55:22;;;;;;;2.88;2.50;;;;;;;23.07;100.00;101164.53;5090262;28;20083;-75
2022/08/11 01:58:37;;;;;;;3.28;2.75;;;;;;;23.18;100.00;101154.03;5081298;28;20031;-75
2022/08/11 02:01:43;;;;;;;5.68;2.70;;;;;;;23.35;100.00;101159.22;5082372;28;20020;-75
2022/08/11 02:04:50;;;;;;;3.10;2.60;;;;;;;23.03;100.00;101152.31;5097338;28;20028;-75
2022/08/11 02:07:55;;;;;;;3.72;2.38;;;;;;;23.12;100.00;101154.41;5081732;28;20111;-75
2022/08/11 02:14:38;;;;;;;2.70;2.50;;;;;;;23.10;100.00;101159.00;5096981;28;20024;-75
2022/08/11 02:17:57;;;;;;;3.15;2.38;;;;;;;23.04;100.00;101159.41;5097195;28;20368;-74
2022/08/11 02:24:03;;;;;;;4.15;3.13;;;;;;;23.00;100.00;101160.53;5097717;28;20457;-75
2022/08/11 02:27:19;;;;;;;4.10;2.75;;;;;;;22.95;100.00;101161.78;5097240;28;20498;-75
2022/08/11 02:30:10;;;;;;;4.18;2.88;;;;;;;22.78;100.00;101165.47;5095929;28;20040;-75
2022/08/11 02:33:23;;;;;;;3.95;2.78;;;;;;;22.79;100.00;101167.19;5096880;28;20103;-74
2022/08/11 02:36:44;;;;;;;4.32;2.80;;;;;;;22.79;100.00;101169.84;5096326;28;20369;-74
2022/08/11 02:39:56;;;;;;;3.53;2.67;;;;;;;22.53;100.00;101170.56;5072714;28;20460;-75
2022/08/11 02:42:45;;;;;;;5.40;2.60;;;;;;;22.82;100.00;101175.00;5066343;28;20048;-74
2022/08/11 02:46:05;;;;;;;2.83;2.63;;;;;;;22.40;100.00;101169.53;5097166;28;20028;-74
2022/08/11 02:52:24;;;;;;;3.63;2.80;;;;;;;22.38;100.00;101166.09;5096669;28;20032;-75
2022/08/11 02:55:31;;;;;;;5.50;2.70;;;;;;;22.59;100.00;101169.34;5096096;28;20047;-75
2022/08/11 02:58:31;;;;;;;4.10;2.80;;;;;;;22.88;100.00;101166.63;5096459;28;20043;-74
2022/08/11 03:01:27;;;;;;;5.18;3.35;;;;;;;23.00;100.00;101165.88;5096284;28;20114;-75
2022/08/11 03:04:20;;;;;;;4.25;3.22;;;;;;;23.30;100.00;101173.81;5081412;28;20059;-75
2022/08/11 03:07:20;;;;;;;4.90;2.90;;;;;;;22.87;100.00;101174.75;5095721;28;20028;-74
2022/08/11 03:10:27;;;;;;;3.92;2.90;;;;;;;22.77;100.00;101179.78;5096646;28;20063;-74
2022/08/11 03:16:50;;;;;;;4.10;2.80;;;;;;;22.70;100.00;101188.25;5096005;28;20398;-75
2022/08/11 03:19:48;;;;;;;7.82;3.08;;;;;;;22.59;100.00;101183.53;5094497;28;20447;-75
2022/08/11 03:23:07;;;;;;;3.08;2.78;;;;;;;22.17;100.00;101182.50;5079971;28;20032;-75
2022/08/11 03:26:16;;;;;;;4.82;2.78;;;;;;;22.30;100.00;101192.38;5095626;28;20089;-74
2022/08/11 03:29:15;;;;;;;4.15;3.22;;;;;;;22.00;100.00;101199.50;5095977;28;20028;-75
2022/08/11 03:32:08;;;;;;;4.80;2.53;;;;;;;22.32;100.00;101195.84;5079415;28;20039;-75
2022/08/11 03:35:00;;;;;;;4.43;2.40;;;;;;;22.39;100.00;101189.16;5080704;28;20020;-75
2022/08/11 03:37:55;;;;;;;4.25;2.80;;;;;;;22.44;100.00;101189.78;5094189;28;20024;-75
2022/08/11 03:41:43;;;;;;;4.68;2.47;;;;;;;22.44;100.00;101195.13;5095945;28;20463;-75
2022/08/11 03:44:38;;;;;;;4.07;2.38;;;;;;;22.54;100.00;101198.13;5080279;28;20051;-75
2022/08/11 03:47:49;;;;;;;4.43;2.40;;;;;;;22.31;100.00;101201.25;5094916;28;20097;-75
2022/08/11 03:51:02;;;;;;;4.22;2.53;;;;;;;22.29;100.00;101204.00;5080639;28;20102;-74
2022/08/11 03:53:59;;;;;;;7.18;2.15;;;;;;;22.28;100.00;101199.63;5095301;28;20403;-74
2022/08/11 03:57:28;;;;;;;4.38;2.25;;;;;;;22.45;100.00;101190.63;5095145;28;20035;-75
2022/08/11 04:00:44;;;;;;;4.30;2.28;;;;;;;22.41;100.00;101184.59;5093923;28;20077;-75
2022/08/11 04:04:11;;;;;;;4.55;2.60;;;;;;;22.32;100.00;101193.16;5094198;28;20028;-75
2022/08/11 04:07:10;;;;;;;4.55;2.45;;;;;;;22.21;100.00;101187.59;5083288;28;20447;-74
2022/08/11 04:10:31;;;;;;;4.28;2.45;;;;;;;22.32;100.00;101193.16;5095058;28;20028;-75
2022/08/11 04:13:45;;;;;;;4.13;2.20;;;;;;;22.30;100.00;101200.38;5078963;28;20040;-74
2022/08/11 04:16:52;;;;;;;5.97;2.30;;;;;;;22.34;100.00;101198.41;5095054;28;20050;-76
2022/08/11 04:20:00;;;;;;;2.72;2.47;;;;;;;22.47;100.00;101196.78;5094820;28;20024;-74
2022/08/11 04:23:10;;;;;;;2.78;2.33;;;;;;;22.43;100.00;101200.53;5095287;28;20031;-75
2022/08/11 04:26:33;;;;;;;10.00;2.78;;;;;;;22.53;100.00;101199.06;5094888;28;20418;-75
2022/08/11 04:29:44;;;;;;;2.42;2.22;;;;;;;22.54;100.00;101201.66;5095578;28;20375;-75
2022/08/11 04:32:58;;;;;;;6.75;2.20;;;;;;;22.74;100.00;101204.00;5094596;28;20115;-74
2022/08/11 04:35:51;;;;;;;3.70;2.30;;;;;;;22.53;100.00;101205.28;5094025;28;20448;-74
2022/08/11 04:38:48;;;;;;;2.47;2.17;;;;;;;22.62;100.00;101209.19;5094449;28;20102;-75
2022/08/11 04:45:49;;;;;;;5.03;2.42;;;;;;;22.66;100.00;101216.97;5080417;28;20031;-75
2022/08/11 05:02:35;;;;;;;3.15;2.53;;;;;;;22.84;100.00;101217.69;5094237;28;20032;-73
2022/08/11 05:05:55;;;;;;;5.22;2.20;;;;;;;23.32;100.00;101215.56;5094824;28;20032;-74
2022/08/11 05:09:01;;;;;;;4.03;2.33;;;;;;;23.25;100.00;101224.06;5094231;28;20080;-74
2022/08/11 05:11:47;;;;;;;4.60;2.67;;;;;;;23.05;100.00;101221.72;5094766;28;20534;-74
2022/08/11 05:37:09;;;;;;;3.13;2.83;;;;;;;23.93;100.00;101227.78;5097935;28;20034;-75
2022/08/11 05:58:47;;;;;;;6.57;2.80;;;;;;;24.31;100.00;101218.13;5086207;28;20020;-74
2022/08/11 06:01:33;;;;;;;4.13;2.60;;;;;;;24.16;100.00;101229.84;5097526;28;20032;-76
2022/08/11 06:04:23;;;;;;;6.32;2.75;;;;;;;24.31;100.00;101216.28;5081959;28;20082;-75
2022/08/11 06:07:11;;;;;;;5.05;4.18;;;;;;;24.83;100.00;101221.72;5097495;28;20100;-74
2022/08/11 06:09:58;;;;;;;6.57;3.17;;;;;;;24.82;100.00;101220.00;5097668;28;20058;-75
2022/08/11 06:12:51;;;;;;;5.00;2.63;;;;;;;24.96;100.00;101226.16;5097356;28;20066;-75
2022/08/11 06:15:48;;;;;;;3.50;2.63;;;;;;;25.40;99.75;101218.56;5096962;28;20024;-74
2022/08/11 06:18:38;;;;;;;4.93;2.63;;;;;;;25.73;98.48;101220.66;5096788;28;20070;-75
2022/08/11 06:21:27;;;;;;;6.50;2.67;;;;;;;25.32;100.00;101220.06;5083021;28;20067;-75
2022/08/11 06:24:14;;;;;;;5.28;2.70;;;;;;;25.62;99.45;101217.88;5096041;28;20297;-75
2022/08/11 06:27:02;;;;;;;5.05;2.70;;;;;;;25.83;98.09;101217.19;5095868;28;20054;-76
2022/08/11 06:29:50;;;;;;;9.15;2.90;;;;;;;25.69;100.00;101213.81;5096790;28;20035;-75
2022/08/11 06:32:37;;;;;;;7.75;2.85;;;;;;;25.85;99.95;101209.03;5096678;28;20039;-76
2022/08/11 06:35:29;;;;;;;31.15;4.57;;;;;;;25.33;100.00;101206.56;5096658;28;20058;-75
2022/08/11 06:38:28;;;;;;;5.38;2.38;;;;;;;25.08;100.00;101208.34;5096859;28;20069;-73
2022/08/11 06:41:29;;;;;;;2.70;2.35;;;;;;;24.79;100.00;101209.50;5096652;28;20035;-75
2022/08/11 06:44:26;;;;;;;4.35;2.75;;;;;;;24.56;100.00;101205.66;5096124;28;20024;-75
2022/08/11 06:47:16;;;;;;;5.00;3.17;;;;;;;24.81;100.00;101210.25;5097055;28;20471;-76
2022/08/11 06:53:11;;;;;;;4.22;2.90;;;;;;;24.76;100.00;101204.34;5096596;28;20107;-75
2022/08/11 07:02:09;;;;;;;9.15;3.45;;;;;;;25.34;100.00;101210.94;5096144;28;20032;-75
2022/08/11 07:05:02;;;;;;;5.40;3.20;;;;;;;25.05;100.00;101208.56;5083163;28;20039;-75
2022/08/11 07:31:27;;;;;;;3.17;2.88;;;;;;;26.29;90.35;101203.97;5095789;28;20404;-75
2022/08/11 07:34:35;;;;;;;4.45;3.00;;;;;;;26.55;89.34;101205.53;5095991;28;20039;-76
2022/08/11 07:37:23;;;;;;;5.38;3.00;;;;;;;26.58;89.54;101202.66;5096166;28;20027;-75
2022/08/11 07:40:10;;;;;;;4.20;2.88;;;;;;;27.08;86.87;101207.66;5081060;28;20024;-75
2022/08/11 07:42:59;;;;;;;6.25;3.45;;;;;;;26.70;87.65;101199.03;5081549;28;20468;-76
2022/08/11 07:55:16;;;;;;;5.32;2.88;;;;;;;27.63;81.22;101199.69;5095244;28;20473;-76
2022/08/11 08:19:49;;;;;;;6.55;3.88;;;;;;;28.75;67.83;101189.34;5094714;28;20028;-75
2022/08/11 08:22:36;;;;;;;5.47;3.88;;;;;;;29.12;64.43;101182.50;5095042;28;20024;-75
2022/08/11 08:25:27;;;;;;;4.05;3.42;;;;;;;29.29;62.54;101183.75;5093312;28;20020;-75
2022/08/11 08:28:19;;;;;;;6.68;4.28;;;;;;;29.78;60.84;101190.06;5094735;28;20036;-75
2022/08/11 08:31:05;;;;;;;5.40;4.32;;;;;;;29.51;59.06;101180.84;5094677;28;20448;-75
2022/08/11 08:33:51;;;;;;;6.47;4.10;;;;;;;29.16;60.31;101183.97;5079247;28;20035;-74
2022/08/11 08:36:41;;;;;;;6.20;4.30;;;;;;;29.57;60.51;101177.63;5094466;28;20127;-75
2022/08/11 08:39:27;;;;;;;7.88;4.05;;;;;;;30.17;60.09;101183.81;5080002;28;20059;-76
2022/08/11 08:42:20;;;;;;;4.80;3.70;;;;;;;29.38;59.94;101185.63;5094961;28;20055;-76
2022/08/11 08:45:09;;;;;;;5.88;3.60;;;;;;;29.58;58.28;101174.78;5093834;28;20036;-75
2022/08/11 08:48:00;;;;;;;6.07;3.70;;;;;;;30.07;57.41;101176.63;5094971;28;20101;-75
2022/08/11 08:54:05;;;;;;;6.75;4.78;;;;;;;29.48;57.75;101157.69;5094912;28;20041;-75
2022/08/11 08:56:55;;;;;;;8.45;6.50;;;;;;;28.43;58.75;101169.66;5078309;28;20020;-76
2022/08/11 08:59:44;;;;;;;7.75;3.42;;;;;;;28.21;60.95;101176.94;5095038;28;20028;-76
2022/08/11 09:02:30;;;;;;;5.28;2.88;;;;;;;29.34;58.39;101170.69;5093027;28;20035;-75
2022/08/11 09:05:18;;;;;;;14.63;3.22;;;;;;;28.94;58.10;101161.63;5095363;28;20028;-75
2022/08/11 09:08:07;;;;;;;4.72;2.95;;;;;;;29.16;59.28;101169.59;5083667;28;20377;-74
2022/08/11 09:14:02;;;;;;;4.70;3.20;;;;;;;29.76;58.87;101159.66;5098561;28;20012;-75
2022/08/11 09:16:51;;;;;;;8.65;2.95;;;;;;;30.13;55.67;101147.19;5098571;28;20136;-75
2022/08/11 09:19:57;;;;;;;6.20;3.13;;;;;;;30.11;54.92;101154.59;5099352;27;20032;-76
2022/08/11 09:29:08;;;;;;;4.07;2.75;;;;;;;30.06;54.49;101151.44;5098120;28;20151;-76
2022/08/11 09:31:55;;;;;;;4.13;2.80;;;;;;;30.15;55.53;101139.84;5098016;28;20478;-75
2022/08/11 09:34:43;;;;;;;7.43;3.00;;;;;;;30.22;55.02;101137.44;5098031;28;20122;-76
2022/08/11 09:40:54;;;;;;;3.72;3.10;;;;;;;30.88;52.66;101147.34;5016812;28;20068;-76
2022/08/11 09:46:49;;;;;;;7.05;3.33;;;;;;;30.20;54.38;101134.00;5097470;28;20038;-74
2022/08/11 09:49:36;;;;;;;8.50;3.72;;;;;;;30.80;53.09;101139.09;5098156;28;20024;-75
2022/08/11 09:52:23;;;;;;;5.15;3.10;;;;;;;30.00;53.58;101129.53;5097799;28;20115;-74
2022/08/11 09:55:10;;;;;;;5.93;2.90;;;;;;;29.96;54.06;101125.41;5098382;28;20036;-75
2022/08/11 10:01:06;;;;;;;3.85;3.10;;;;;;;30.62;51.79;101136.25;5097358;28;20039;-75
2022/08/11 10:04:02;;;;;;;4.00;2.53;;;;;;;29.34;53.95;101122.97;5097589;28;20383;-75
2022/08/11 10:07:04;;;;;;;4.25;2.83;;;;;;;30.08;52.31;101113.47;5096418;28;20462;-75
2022/08/11 10:09:54;;;;;;;2.90;2.65;;;;;;;30.72;51.56;101125.44;5097797;28;20452;-75
2022/08/11 10:12:46;;;;;;;3.25;2.90;;;;;;;30.70;50.94;101131.00;5097373;28;20426;-75
2022/08/11 10:15:37;;;;;;;4.15;2.67;;;;;;;30.51;51.18;101127.44;5097083;28;20375;-75
2022/08/11 10:18:51;;;;;;;7.32;2.90;;;;;;;31.22;49.69;101129.59;5082288;28;20020;-75
2022/08/11 10:26:48;;;;;;;3.58;2.63;;;;;;;30.72;50.54;101125.44;5097004;28;20074;-75
2022/08/11 10:27:58;;;;;;;3.25;2.65;;;;;;;30.72;51.68;101118.19;5097286;28;20472;-74
2022/08/11 10:34:02;;;;;;;6.35;2.45;;;;;;;30.75;50.61;101117.91;5097022;28;20463;-78
2022/08/11 10:36:48;;;;;;;5.07;3.08;;;;;;;30.76;49.75;101111.50;5096705;28;20345;-76
2022/08/11 10:39:36;;;;;;;3.05;2.70;;;;;;;30.96;50.14;101118.56;5096819;28;20123;-76
2022/08/11 10:48:40;;;;;;;3.25;2.95;;;;;;;29.74;52.51;101114.88;5068110;28;20102;-74
2022/08/11 11:00:44;;;;;;;3.75;2.65;;;;;;;29.99;52.77;101098.97;5086789;28;20074;-76
2022/08/11 11:03:34;;;;;;;3.10;2.80;;;;;;;30.12;52.09;101096.84;5087845;28;20424;-76
2022/08/11 11:06:43;;;;;;;4.65;2.50;;;;;;;30.02;52.89;101093.25;5086030;28;20372;-75
2022/08/11 11:09:32;;;;;;;8.50;7.03;;;;;;;30.01;56.42;101091.56;5086486;28;20252;-75
2022/08/11 11:18:44;;;;;;;3.95;2.75;;;;;;;29.51;53.70;101100.69;5086755;28;20046;-75
2022/08/11 11:21:31;;;;;;;6.18;3.03;;;;;;;29.94;53.41;101086.88;5071407;28;20020;-75
2022/08/11 11:24:49;;;;;;;4.93;2.70;;;;;;;30.46;52.24;101086.47;5086224;28;20028;-76
2022/08/11 11:28:07;;;;;;;7.90;2.90;;;;;;;29.75;53.31;101090.41;5084478;28;20035;-75
2022/08/11 11:31:09;;;;;;;3.80;3.30;;;;;;;29.79;53.48;101080.16;5085447;28;20032;-76
2022/08/11 11:34:14;;;;;;;3.25;2.67;;;;;;;30.34;51.49;101076.78;5086616;28;20032;-74
2022/08/11 11:37:02;;;;;;;6.50;2.70;;;;;;;30.10;52.41;101073.66;5083488;28;20028;-73
2022/08/11 11:39:52;;;;;;;3.40;2.50;;;;;;;30.80;49.73;101074.16;5086333;28;20096;-76
2022/08/11 11:42:44;;;;;;;3.65;2.80;;;;;;;31.22;48.90;101075.44;5084708;28;20452;-74
2022/08/11 11:45:30;;;;;;;4.72;3.00;;;;;;;31.34;48.55;101079.69;5084157;28;20036;-75
2022/08/11 11:48:16;;;;;;;7.00;3.00;;;;;;;31.07;49.18;101082.31;5085263;28;20338;-73
2022/08/11 11:51:03;;;;;;;4.65;2.72;;;;;;;31.16;48.23;101081.44;5071675;28;20035;-74
2022/08/11 11:53:50;;;;;;;3.45;2.45;;;;;;;30.99;46.76;101085.75;5080298;28;20087;-76
2022/08/11 11:56:37;;;;;;;3.10;2.80;;;;;;;31.15;46.74;101079.72;5063625;28;20032;-74
2022/08/11 12:02:30;;;;;;;4.30;3.20;;;;;;;31.35;46.35;101073.25;5065973;28;20021;-74
2022/08/11 12:05:17;;;;;;;4.18;2.88;;;;;;;31.08;45.87;101078.63;5062968;28;20043;-73
2022/08/11 12:14:08;;;;;;;9.20;2.80;;;;;;;30.73;46.74;101076.59;5061946;28;20025;-73
2022/08/11 12:16:56;;;;;;;7.38;2.67;;;;;;;30.55;46.85;101072.06;5063881;28;20032;-72
2022/08/11 12:19:41;;;;;;;5.70;2.70;;;;;;;31.14;44.81;101067.19;5062784;28;20047;-73
2022/08/11 12:28:39;;;;;;;6.55;2.90;;;;;;;31.18;45.87;101069.44;5063988;28;20028;-74
2022/08/11 12:31:24;;;;;;;7.00;2.75;;;;;;;31.24;45.51;101065.31;5050807;28;20067;-73
2022/08/11 12:34:13;;;;;;;4.68;2.83;;;;;;;30.21;46.41;101066.25;5063187;28;20044;-73
2022/08/11 12:37:04;;;;;;;6.65;3.65;;;;;;;31.04;46.39;101060.97;5065408;28;20036;-73
2022/08/11 12:46:13;;;;;;;6.75;3.22;;;;;;;30.54;46.82;101063.06;5059751;28;20048;-74
2022/08/11 12:52:23;;;;;;;5.00;2.90;;;;;;;30.56;46.62;101052.97;5063564;28;20415;-73
2022/08/11 12:55:12;;;;;;;5.82;3.10;;;;;;;31.06;46.47;101051.69;5064740;28;20055;-73
2022/08/11 12:58:16;;;;;;;3.83;2.80;;;;;;;30.96;46.51;101050.03;5085843;28;20093;-75
2022/08/11 13:07:12;;;;;;;4.55;3.05;;;;;;;30.68;46.67;101045.53;5083775;28;20436;-72
2022/08/11 13:10:00;;;;;;;5.07;3.70;;;;;;;30.87;46.81;101049.03;5086678;28;20044;-75
2022/08/11 13:12:46;;;;;;;5.75;3.05;;;;;;;30.95;45.81;101045.63;5069027;28;20412;-74
2022/08/11 13:15:35;;;;;;;3.30;2.70;;;;;;;30.57;47.29;101041.16;5082728;28;20024;-73
2022/08/11 13:18:22;;;;;;;3.13;2.75;;;;;;;30.46;47.51;101046.72;5083208;28;20479;-72
2022/08/11 13:21:11;;;;;;;7.82;3.30;;;;;;;31.09;47.54;101037.00;5083087;28;20033;-73
2022/08/11 13:23:59;;;;;;;5.95;2.80;;;;;;;30.12;47.74;101040.06;5084411;28;20032;-73
2022/08/11 13:26:47;;;;;;;5.28;2.60;;;;;;;30.55;47.37;101036.88;5067862;28;20097;-71
2022/08/11 13:29:34;;;;;;;5.03;2.47;;;;;;;30.90;45.93;101032.53;5083958;28;20028;-72
2022/08/11 13:32:25;;;;;;;6.75;2.53;;;;;;;31.49;44.82;101018.53;5085133;28;20032;-72
2022/08/11 13:35:14;;;;;;;3.20;2.60;;;;;;;31.69;45.36;101025.53;5081765;28;20020;-72
2022/08/11 13:38:02;;;;;;;8.95;2.90;;;;;;;31.08;46.47;101019.91;5083536;28;20028;-71
2022/08/11 13:40:49;;;;;;;3.33;3.00;;;;;;;31.31;47.28;101023.94;5069900;28;20044;-72
2022/08/11 13:43:36;;;;;;;6.68;3.05;;;;;;;31.23;47.27;101023.84;5084420;28;20092;-72
2022/08/11 13:46:24;;;;;;;4.57;2.80;;;;;;;30.83;46.36;101031.41;5081996;28;20035;-72
2022/08/11 13:49:13;;;;;;;2.83;2.53;;;;;;;31.00;45.44;101014.41;5082959;28;20035;-72
2022/08/11 13:52:00;;;;;;;4.22;2.72;;;;;;;30.75;46.81;101011.50;5085296;28;20620;-71
2022/08/11 13:54:47;;;;;;;3.05;2.70;;;;;;;30.43;48.78;101021.84;5082885;28;20060;-72
2022/08/11 13:57:34;;;;;;;5.00;2.40;;;;;;;30.05;48.39;101017.31;5086246;28;20023;-72
2022/08/11 14:00:20;;;;;;;3.10;2.80;;;;;;;30.28;48.58;101013.31;5087346;28;20036;-71
2022/08/11 14:03:11;;;;;;;5.10;2.50;;;;;;;29.77;49.46;101018.16;5087551;28;20032;-71
2022/08/11 14:06:01;;;;;;;3.65;2.65;;;;;;;29.92;48.57;101019.44;5087449;28;20036;-72
2022/08/11 14:08:50;;;;;;;10.77;3.22;;;;;;;30.14;49.42;101016.47;5087812;28;20070;-71
2022/08/11 14:14:51;;;;;;;3.47;2.50;;;;;;;30.03;48.72;101018.44;5074327;28;20115;-71
2022/08/11 14:17:40;;;;;;;6.22;2.47;;;;;;;30.29;47.56;101011.47;5086079;28;20028;-72
2022/08/11 14:22:05;;;;;;;4.32;2.20;;;;;;;30.25;48.02;101019.00;5087575;28;20032;-73
2022/08/11 14:23:44;;;;;;;4.88;2.67;;;;;;;30.16;47.67;101010.91;5084894;28;20038;-71
2022/08/11 14:26:37;;;;;;;2.55;2.20;;;;;;;30.06;47.58;101013.59;5086257;28;20043;-71
2022/08/11 14:29:26;;;;;;;4.13;2.58;;;;;;;29.94;50.79;101012.03;5086541;28;20020;-75
2022/08/11 14:32:13;;;;;;;4.72;2.53;;;;;;;29.75;53.50;101014.75;5085598;28;20016;-75
2022/08/11 14:35:00;;;;;;;4.57;2.80;;;;;;;30.00;53.83;101005.22;5086191;28;20038;-75
2022/08/11 14:37:49;;;;;;;5.22;3.13;;;;;;;30.02;55.13;101016.75;5087050;28;20118;-75
2022/08/11 14:49:51;;;;;;;4.13;2.78;;;;;;;29.74;53.92;101001.41;5085822;28;20036;-74
2022/08/11 14:52:37;;;;;;;5.90;2.80;;;;;;;29.70;53.98;101013.47;5085406;28;20123;-75
2022/08/11 14:58:32;;;;;;;2.92;2.63;;;;;;;29.72;52.54;101009.63;5088047;28;20036;-74
2022/08/11 15:04:23;;;;;;;4.95;2.95;;;;;;;29.69;51.74;101004.50;5083332;28;20039;-75
2022/08/11 15:07:10;;;;;;;5.65;2.92;;;;;;;29.75;54.22;100998.56;5070249;28;20105;-75
2022/08/11 15:10:02;;;;;;;3.97;2.92;;;;;;;29.91;54.35;100998.84;5086356;28;20039;-74
2022/08/11 15:12:49;;;;;;;2.60;2.40;;;;;;;29.60;51.66;100993.69;5085578;28;20463;-75
2022/08/11 15:18:40;;;;;;;4.03;2.92;;;;;;;29.75;51.86;100987.75;5082999;28;20028;-76
2022/08/11 15:24:32;;;;;;;3.83;3.00;;;;;;;29.75;52.79;100984.19;5084675;28;20024;-75
2022/08/11 15:46:29;;;;;;;6.55;3.10;;;;;;;29.62;53.38;100976.34;5085448;28;20433;-77
2022/08/11 15:49:38;;;;;;;4.88;3.30;;;;;;;29.88;54.07;100969.38;5085162;28;20464;-76
2022/08/11 15:52:30;;;;;;;5.10;3.35;;;;;;;29.53;56.30;100966.38;5069872;28;20104;-76
2022/08/11 15:55:17;;;;;;;7.03;4.00;;;;;;;29.37;57.66;100970.63;5082858;28;20062;-76
2022/08/11 16:04:25;;;;;;;4.95;3.10;;;;;;;29.17;60.32;100956.22;5085029;28;20035;-78
2022/08/11 16:07:14;;;;;;;7.00;2.88;;;;;;;29.26;59.98;100957.25;5068405;28;20126;-76
2022/08/11 16:10:18;;;;;;;6.85;2.90;;;;;;;29.23;59.98;100958.41;5083664;28;20043;-75
2022/08/11 16:16:13;;;;;;;7.45;3.10;;;;;;;29.52;58.14;100961.09;5112301;28;20098;-76
2022/08/11 16:19:01;;;;;;;4.63;2.92;;;;;;;29.39;59.20;100965.94;5113177;28;20035;-75
2022/08/11 16:21:51;;;;;;;3.53;2.80;;;;;;;29.16;58.82;100959.94;5113624;28;20050;-78
2022/08/11 16:24:43;;;;;;;5.78;3.05;;;;;;;28.93;60.66;100958.41;5098604;28;20068;-79
2022/08/11 16:27:32;;;;;;;3.20;2.85;;;;;;;29.27;58.64;100961.66;5116075;28;20413;-80
2022/08/11 16:30:19;;;;;;;7.22;3.55;;;;;;;28.97;60.60;100948.22;5118461;28;20050;-81
2022/08/11 16:33:05;;;;;;;4.95;3.17;;;;;;;29.10;59.97;100952.41;5117660;28;20110;-81
2022/08/11 16:38:58;;;;;;;9.23;2.97;;;;;;;28.95;62.17;100956.44;5119884;28;20031;-79
2022/08/11 16:47:58;;;;;;;5.68;3.42;;;;;;;29.07;58.77;100962.59;5114930;28;20106;-81
2022/08/11 16:50:44;;;;;;;4.60;3.15;;;;;;;28.89;59.29;100964.25;5116658;28;20028;-80
2022/08/11 16:53:30;;;;;;;7.95;3.42;;;;;;;28.99;58.76;100965.97;5115034;28;20073;-80
2022/08/11 16:56:48;;;;;;;3.97;2.83;;;;;;;29.01;57.67;100973.97;5098958;28;20024;-81
2022/08/11 16:59:37;;;;;;;61.05;42.05;;;;;;;28.94;58.05;100968.25;5094080;28;20031;-80
2022/08/11 17:18:42;;;;;;;5.72;3.33;;;;;;;28.62;60.11;100978.34;5095130;28;20036;-81
2022/08/11 17:23:45;;;;;;;8.20;3.15;;;;;;;28.60;59.79;100985.69;5085782;28;20024;-81
2022/08/11 17:24:50;;;;;;;5.78;3.30;;;;;;;28.30;61.88;100977.56;5103072;28;20020;-81
2022/08/11 17:27:44;;;;;;;8.27;3.65;;;;;;;28.23;62.43;100987.16;5104456;28;20027;-81
2022/08/11 17:36:43;;;;;;;6.60;3.67;;;;;;;28.40;61.72;100993.81;5103366;28;20024;-81
2022/08/11 17:39:31;;;;;;;7.03;3.30;;;;;;;28.18;63.51;100991.25;5101710;28;20137;-81
2022/08/11 17:48:30;;;;;;;3.97;3.17;;;;;;;28.06;67.02;100995.84;5101061;28;20024;-80
2022/08/11 18:00:35;;;;;;;9.50;3.88;;;;;;;27.76;71.11;101006.47;5101258;28;20035;-81
2022/08/11 18:03:31;;;;;;;7.15;3.80;;;;;;;27.84;71.61;101001.34;5109566;28;20043;-81
2022/08/11 18:06:18;;;;;;;6.53;4.43;;;;;;;27.91;71.56;101010.63;5103669;28;20110;-81
